Track Матвеева Алена

Time Latitude Longitude Accuracy (66% radius in meters) Altitude (meters) Speed (km/hour) Bearing (degrees) Battery (%) GPS flag
08:25:08 60.370972 29.556255 12 70 0 211.68209838867 80 1 delete
08:25:03 60.370977 29.556245 8 75 0.11131697893143 258.70071411133 80 1 delete
08:24:56 60.371005 29.556297 8 78 0.34885483980179 49.899375915527 80 1 delete
08:24:43 60.370987 29.556317 6 86 0 22.635614395142 80 1 delete
08:24:30 60.370996 29.556336 8 75 0 22.319026947021 80 1 delete
08:24:17 60.370990 29.556315 4 77 0 164.14752197266 80 1 delete
08:24:04 60.371025 29.556339 6 79 0 21.692007064819 80 1 delete
08:23:51 60.371029 29.556321 6 76 0 214.73965454102 80 1 delete
08:23:39 60.371013 29.556319 6 79 0 5.2455306053162 80 1 delete
08:23:37 60.371008 29.556316 12 79 0 5.2455306053162 80 1 delete
08:23:26 60.370990 29.556308 6 77 0 5.2455306053162 80 1 delete
08:23:13 60.370977 29.556305 8 75 0 127.10953521729 80 1 delete
08:23:05 60.370962 29.556289 16 80 0 18.608602523804 80 1 delete
08:23:00 60.370943 29.556249 6 85 0 18.608602523804 80 1 delete
08:22:49 60.370961 29.556198 6 83 0 48.656803131104 80 1 delete
08:22:48 60.370971 29.556198 8 83 0 48.656803131104 80 1 delete
08:22:41 60.371001 29.556238 8 81 0 24.019235610962 80 1 delete
08:22:35 60.371009 29.556277 6 82 0 24.019235610962 80 1 delete
08:22:28 60.371001 29.556329 8 82 0 4.1052360534668 80 1 delete
08:22:22 60.370989 29.556406 8 73 0 4.1052360534668 80 1 delete
08:22:12 60.370956 29.556356 12 79 0 215.33364868164 80 1 delete
08:22:09 60.370940 29.556341 8 74 0 215.33364868164 80 1 delete
08:21:57 60.370929 29.556341 8 73 0 7.1422328948975 80 1 delete
08:21:50 60.370913 29.556312 8 87 0.062709234654903 84.714736938477 80 1 delete
08:21:44 60.370917 29.556280 6 71 0 41.880596160889 80 1 delete
08:21:32 60.370928 29.556239 6 74 0 58.471866607666 80 1 delete
08:21:27 60.370939 29.556226 12 74 0 58.471866607666 80 1 delete
08:21:20 60.370951 29.556235 4 73 0 58.471866607666 80 1 delete
08:21:06 60.370986 29.556280 6 80 0 58.471866607666 80 1 delete
08:20:54 60.370977 29.556257 8 85 0 196.59580993652 80 1 delete
08:20:41 60.370972 29.556231 6 70 0 221.22560119629 80 1 delete
08:20:28 60.370979 29.556227 6 73 0 72.059471130371 80 1 delete
08:20:18 60.370981 29.556263 8 75 0 72.059471130371 80 1 delete
08:20:15 60.370980 29.556267 6 77 0 72.059471130371 80 1 delete
08:20:03 60.370983 29.556342 6 80 0 130.2325592041 80 1 delete
08:19:50 60.370970 29.556344 8 62 0 130.2325592041 80 1 delete
08:19:45 60.370982 29.556355 16 59 0.094583414494991 130.2325592041 80 1 delete
08:19:39 60.371029 29.556360 4 69 0.34845200181007 192.03398132324 80 1 delete
08:19:38 60.371037 29.556361 8 72 0.4121085703373 192.67108154297 80 1 delete
08:19:25 60.371084 29.556306 8 83 0 203.22039794922 80 1 delete
08:19:13 60.371078 29.556318 6 74 0 6.0392518043518 80 1 delete
08:19:11 60.371068 29.556312 6 71 0 6.0392518043518 80 1 delete
08:19:04 60.371022 29.556330 8 78 0 6.0392518043518 80 1 delete
08:19:00 60.370985 29.556365 6 71 0 6.0392518043518 80 1 delete
08:18:48 60.370983 29.556348 6 61 0 6.0392518043518 80 1 delete
08:18:35 60.370993 29.556370 6 60 0 6.0392518043518 80 1 delete
08:18:22 60.370980 29.556375 6 53 0 6.0392518043518 80 1 delete
08:18:19 60.370977 29.556372 6 53 0 6.0392518043518 80 1 delete
08:18:10 60.370982 29.556323 8 53 0 6.0392518043518 80 1 delete
08:18:01 60.371008 29.556304 8 52 0 6.0392518043518 80 1 delete